TimeMST,TemperatureF,Dew PointF,Humidity,Sea Level PressureIn,VisibilityMPH,Wind Direction,Wind SpeedMPH,Gust SpeedMPH,PrecipitationIn,Events,Conditions,WindDirDegrees,DateUTC
12:55 AM,17.1,14.0,88,30.45,10.0,Calm,Calm,-,N/A,,Clear,0,2014-01-20 07:55:00
1:55 AM,16.0,14.0,92,30.47,10.0,Calm,Calm,-,N/A,,Clear,0,2014-01-20 08:55:00
2:55 AM,16.0,12.9,88,30.50,10.0,Calm,Calm,-,N/A,,Clear,0,2014-01-20 09:55:00
3:55 AM,16.0,12.9,88,30.52,10.0,Calm,Calm,-,N/A,,Clear,0,2014-01-20 10:55:00
4:55 AM,12.9,10.0,88,30.54,10.0,Calm,Calm,-,N/A,,Clear,0,2014-01-20 11:55:00
5:55 AM,12.9,10.0,88,30.58,10.0,Calm,Calm,-,N/A,,Clear,0,2014-01-20 12:55:00
6:55 AM,12.0,10.0,92,30.60,10.0,Calm,Calm,-,N/A,,Clear,0,2014-01-20 13:55:00
7:55 AM,12.9,10.0,88,30.59,10.0,Calm,Calm,-,N/A,,Clear,0,2014-01-20 14:55:00
8:55 AM,14.0,10.9,88,30.61,10.0,NE,4.6,-,N/A,,Clear,40,2014-01-20 15:55:00
9:55 AM,21.0,17.1,85,30.62,10.0,Calm,Calm,-,N/A,,Clear,0,2014-01-20 16:55:00
10:55 AM,23.0,19.9,88,30.63,10.0,Calm,Calm,-,N/A,,Clear,0,2014-01-20 17:55:00
11:55 AM,27.0,19.9,75,30.61,10.0,Calm,Calm,-,N/A,,Clear,0,2014-01-20 18:55:00
12:55 PM,28.9,21.9,75,30.58,10.0,Calm,Calm,-,N/A,,Clear,0,2014-01-20 19:55:00
1:55 PM,30.9,21.9,69,30.56,10.0,Calm,Calm,-,N/A,,Clear,0,2014-01-20 20:55:00
2:55 PM,33.1,24.1,70,30.54,10.0,Calm,Calm,-,N/A,,Clear,0,2014-01-20 21:55:00
3:55 PM,33.1,24.1,70,30.54,10.0,Calm,Calm,-,N/A,,Clear,0,2014-01-20 22:55:00
4:55 PM,30.0,23.0,75,30.55,10.0,WSW,3.5,-,N/A,,Clear,240,2014-01-20 23:55:00
5:55 PM,26.1,21.9,84,30.56,10.0,Calm,Calm,-,N/A,,Clear,0,2014-01-21 00:55:00
6:55 PM,25.0,21.0,85,30.56,10.0,Calm,Calm,-,N/A,,Clear,0,2014-01-21 01:55:00
7:55 PM,21.0,18.0,88,30.57,8.0,Calm,Calm,-,N/A,,Clear,0,2014-01-21 02:55:00
8:09 PM,19.4,17.6,93,30.42,8.0,Calm,Calm,-,N/A,,Scattered Clouds,0,2014-01-21 03:09:00
8:17 PM,21.2,17.6,86,30.42,9.0,Calm,Calm,-,N/A,,Mostly Cloudy,0,2014-01-21 03:17:00
8:55 PM,23.0,19.9,88,30.56,8.0,Calm,Calm,-,N/A,,Overcast,0,2014-01-21 03:55:00
9:55 PM,26.1,24.1,92,30.55,7.0,Calm,Calm,-,N/A,,Overcast,0,2014-01-21 04:55:00
10:33 PM,26.6,24.8,93,30.42,2.0,Calm,Calm,-,N/A,,Overcast,0,2014-01-21 05:33:00
10:45 PM,26.6,24.8,93,30.43,1.2,Calm,Calm,-,N/A,,Overcast,0,2014-01-21 05:45:00
10:55 PM,26.1,25.0,96,30.54,1.0,Calm,Calm,-,N/A,,Mist,0,2014-01-21 05:55:00
11:03 PM,26.6,24.8,93,30.43,0.5,Calm,Calm,-,N/A,Fog,Light Freezing Fog,0,2014-01-21 06:03:00
11:55 PM,26.1,24.1,92,30.54,0.8,Calm,Calm,-,N/A,,Overcast,0,2014-01-21 06:55:00